sensor_id;sensor_type;location;lat;lon;timestamp;temperature;humidity
2913;DHT22;1466;48.778;9.166;2022-10-31T00:00:07;16.30;99.90
2913;DHT22;1466;48.778;9.166;2022-10-31T00:02:33;16.30;99.90
2913;DHT22;1466;48.778;9.166;2022-10-31T00:04:58;16.30;99.90
2913;DHT22;1466;48.778;9.166;2022-10-31T00:07:24;16.30;99.90
2913;DHT22;1466;48.778;9.166;2022-10-31T00:09:50;16.30;99.90
2913;DHT22;1466;48.778;9.166;2022-10-31T00:12:15;16.30;99.90
2913;DHT22;1466;48.778;9.166;2022-10-31T00:14:41;16.30;99.90
2913;DHT22;1466;48.778;9.166;2022-10-31T00:17:06;16.30;99.90
2913;DHT22;1466;48.778;9.166;2022-10-31T00:19:32;16.30;99.90
2913;DHT22;1466;48.778;9.166;2022-10-31T00:21:57;16.30;99.90
2913;DHT22;1466;48.778;9.166;2022-10-31T00:24:23;16.20;99.90
2913;DHT22;1466;48.778;9.166;2022-10-31T00:26:48;16.10;99.90
2913;DHT22;1466;48.778;9.166;2022-10-31T00:29:14;16.10;99.90
2913;DHT22;1466;48.778;9.166;2022-10-31T00:31:39;16.10;99.90
2913;DHT22;1466;48.778;9.166;2022-10-31T00:34:05;16.00;99.90
2913;DHT22;1466;48.778;9.166;2022-10-31T00:36:31;16.00;99.90
2913;DHT22;1466;48.778;9.166;2022-10-31T00:38:58;16.00;99.90
2913;DHT22;1466;48.778;9.166;2022-10-31T00:41:23;16.10;99.90
2913;DHT22;1466;48.778;9.166;2022-10-31T00:43:49;16.10;99.90
2913;DHT22;1466;48.778;9.166;2022-10-31T00:46:14;16.00;99.90
2913;DHT22;1466;48.778;9.166;2022-10-31T00:48:40;16.00;99.90
2913;DHT22;1466;48.778;9.166;2022-10-31T00:51:06;16.00;99.90
2913;DHT22;1466;48.778;9.166;2022-10-31T00:53:32;16.00;99.90
2913;DHT22;1466;48.778;9.166;2022-10-31T00:55:58;15.90;99.90
2913;DHT22;1466;48.778;9.166;2022-10-31T00:58:23;16.00;99.90
2913;DHT22;1466;48.778;9.166;2022-10-31T01:00:49;16.10;99.90
2913;DHT22;1466;48.778;9.166;2022-10-31T01:03:24;16.10;99.90
2913;DHT22;1466;48.778;9.166;2022-10-31T01:06:09;16.00;99.90
2913;DHT22;1466;48.778;9.166;2022-10-31T01:08:36;15.90;99.90
2913;DHT22;1466;48.778;9.166;2022-10-31T01:13:30;15.90;99.90
2913;DHT22;1466;48.778;9.166;2022-10-31T01:15:57;15.80;99.90
2913;DHT22;1466;48.778;9.166;2022-10-31T01:18:23;15.70;99.90
2913;DHT22;1466;48.778;9.166;2022-10-31T01:21:04;15.70;99.90
2913;DHT22;1466;48.778;9.166;2022-10-31T01:23:30;15.70;99.90
2913;DHT22;1466;48.778;9.166;2022-10-31T01:26:17;15.80;99.90
2913;DHT22;1466;48.778;9.166;2022-10-31T01:28:46;15.80;99.90
2913;DHT22;1466;48.778;9.166;2022-10-31T01:31:12;15.80;99.90
2913;DHT22;1466;48.778;9.166;2022-10-31T01:33:38;15.80;99.90
2913;DHT22;1466;48.778;9.166;2022-10-31T01:38:38;15.90;99.90
2913;DHT22;1466;48.778;9.166;2022-10-31T01:41:04;15.90;99.90
2913;DHT22;1466;48.778;9.166;2022-10-31T01:46:41;15.80;99.90
2913;DHT22;1466;48.778;9.166;2022-10-31T01:49:15;15.70;99.90
2913;DHT22;1466;48.778;9.166;2022-10-31T01:51:47;15.60;99.90
2913;DHT22;1466;48.778;9.166;2022-10-31T01:54:16;15.60;99.90
2913;DHT22;1466;48.778;9.166;2022-10-31T01:56:45;15.60;99.90
2913;DHT22;1466;48.778;9.166;2022-10-31T01:59:15;15.60;99.90
2913;DHT22;1466;48.778;9.166;2022-10-31T02:01:43;15.70;99.90
2913;DHT22;1466;48.778;9.166;2022-10-31T02:04:08;15.70;99.90
2913;DHT22;1466;48.778;9.166;2022-10-31T02:06:46;15.70;99.90
2913;DHT22;1466;48.778;9.166;2022-10-31T02:09:14;15.70;99.90
2913;DHT22;1466;48.778;9.166;2022-10-31T02:11:41;15.60;99.90
2913;DHT22;1466;48.778;9.166;2022-10-31T02:14:07;15.60;99.90
2913;DHT22;1466;48.778;9.166;2022-10-31T02:16:33;15.50;99.90
2913;DHT22;1466;48.778;9.166;2022-10-31T02:18:59;15.50;99.90
2913;DHT22;1466;48.778;9.166;2022-10-31T02:21:47;15.50;99.90
2913;DHT22;1466;48.778;9.166;2022-10-31T02:32:49;15.40;99.90
2913;DHT22;1466;48.778;9.166;2022-10-31T02:35:21;15.40;99.90
2913;DHT22;1466;48.778;9.166;2022-10-31T02:38:26;15.50;99.90
2913;DHT22;1466;48.778;9.166;2022-10-31T02:49:07;15.40;99.90
2913;DHT22;1466;48.778;9.166;2022-10-31T02:51:36;15.30;99.90
2913;DHT22;1466;48.778;9.166;2022-10-31T02:54:01;15.30;99.90
2913;DHT22;1466;48.778;9.166;2022-10-31T02:56:27;15.30;99.90
2913;DHT22;1466;48.778;9.166;2022-10-31T02:58:57;15.40;99.90
2913;DHT22;1466;48.778;9.166;2022-10-31T03:07:24;15.40;99.90
2913;DHT22;1466;48.778;9.166;2022-10-31T03:10:11;15.50;99.90
2913;DHT22;1466;48.778;9.166;2022-10-31T03:12:47;15.50;99.90
2913;DHT22;1466;48.778;9.166;2022-10-31T03:15:45;15.40;99.90
2913;DHT22;1466;48.778;9.166;2022-10-31T03:18:21;15.30;99.90
2913;DHT22;1466;48.778;9.166;2022-10-31T03:20:54;15.30;99.90
2913;DHT22;1466;48.778;9.166;2022-10-31T03:23:22;15.30;99.90
2913;DHT22;1466;48.778;9.166;2022-10-31T03:25:48;15.30;99.90
2913;DHT22;1466;48.778;9.166;2022-10-31T03:28:17;15.20;99.90
2913;DHT22;1466;48.778;9.166;2022-10-31T03:30:45;15.30;99.90
2913;DHT22;1466;48.778;9.166;2022-10-31T03:33:15;15.30;99.90
2913;DHT22;1466;48.778;9.166;2022-10-31T03:35:45;15.30;99.90
2913;DHT22;1466;48.778;9.166;2022-10-31T03:38:12;15.20;99.90
2913;DHT22;1466;48.778;9.166;2022-10-31T03:40:40;15.10;99.90
2913;DHT22;1466;48.778;9.166;2022-10-31T03:43:12;15.10;99.90
2913;DHT22;1466;48.778;9.166;2022-10-31T03:45:45;15.00;99.90
2913;DHT22;1466;48.778;9.166;2022-10-31T03:48:12;15.10;99.90
2913;DHT22;1466;48.778;9.166;2022-10-31T03:53:52;15.20;99.90
2913;DHT22;1466;48.778;9.166;2022-10-31T03:56:42;15.20;99.90
2913;DHT22;1466;48.778;9.166;2022-10-31T03:59:17;15.10;99.90
2913;DHT22;1466;48.778;9.166;2022-10-31T04:01:47;15.10;99.90
2913;DHT22;1466;48.778;9.166;2022-10-31T04:04:15;15.10;99.90
2913;DHT22;1466;48.778;9.166;2022-10-31T04:06:42;15.10;99.90
2913;DHT22;1466;48.778;9.166;2022-10-31T04:09:09;15.20;99.90
2913;DHT22;1466;48.778;9.166;2022-10-31T04:11:40;15.10;99.90
2913;DHT22;1466;48.778;9.166;2022-10-31T04:14:08;15.20;99.90
2913;DHT22;1466;48.778;9.166;2022-10-31T04:16:34;15.20;99.90
2913;DHT22;1466;48.778;9.166;2022-10-31T04:19:00;15.10;99.90
2913;DHT22;1466;48.778;9.166;2022-10-31T04:21:29;15.10;99.90
2913;DHT22;1466;48.778;9.166;2022-10-31T04:23:55;15.10;99.90
2913;DHT22;1466;48.778;9.166;2022-10-31T04:26:21;15.20;99.90
2913;DHT22;1466;48.778;9.166;2022-10-31T04:28:46;15.10;99.90
2913;DHT22;1466;48.778;9.166;2022-10-31T04:31:12;15.10;99.90
2913;DHT22;1466;48.778;9.166;2022-10-31T04:33:38;15.10;99.90
2913;DHT22;1466;48.778;9.166;2022-10-31T04:36:04;15.00;99.90
2913;DHT22;1466;48.778;9.166;2022-10-31T04:38:33;15.00;99.90
2913;DHT22;1466;48.778;9.166;2022-10-31T04:40:58;15.10;99.90
2913;DHT22;1466;48.778;9.166;2022-10-31T04:43:24;15.00;99.90
2913;DHT22;1466;48.778;9.166;2022-10-31T04:45:50;15.10;99.90
2913;DHT22;1466;48.778;9.166;2022-10-31T04:48:16;15.00;99.90
2913;DHT22;1466;48.778;9.166;2022-10-31T04:50:41;15.00;99.90
2913;DHT22;1466;48.778;9.166;2022-10-31T04:53:07;14.90;99.90
2913;DHT22;1466;48.778;9.166;2022-10-31T04:55:34;15.00;99.90
2913;DHT22;1466;48.778;9.166;2022-10-31T04:58:00;15.00;99.90
2913;DHT22;1466;48.778;9.166;2022-10-31T05:00:25;15.00;99.90
2913;DHT22;1466;48.778;9.166;2022-10-31T05:02:53;15.00;99.90
2913;DHT22;1466;48.778;9.166;2022-10-31T05:05:22;15.00;99.90
2913;DHT22;1466;48.778;9.166;2022-10-31T05:07:48;15.00;99.90
2913;DHT22;1466;48.778;9.166;2022-10-31T05:10:17;15.00;99.90
2913;DHT22;1466;48.778;9.166;2022-10-31T05:12:48;14.90;99.90
2913;DHT22;1466;48.778;9.166;2022-10-31T05:15:14;14.80;99.90
2913;DHT22;1466;48.778;9.166;2022-10-31T05:17:40;14.80;99.90
2913;DHT22;1466;48.778;9.166;2022-10-31T05:20:06;14.70;99.90
2913;DHT22;1466;48.778;9.166;2022-10-31T05:22:31;14.80;99.90
2913;DHT22;1466;48.778;9.166;2022-10-31T05:24:57;14.80;99.90
2913;DHT22;1466;48.778;9.166;2022-10-31T05:27:22;14.70;99.90
2913;DHT22;1466;48.778;9.166;2022-10-31T05:29:48;14.70;99.90
2913;DHT22;1466;48.778;9.166;2022-10-31T05:32:14;14.60;99.90
2913;DHT22;1466;48.778;9.166;2022-10-31T05:34:39;14.70;99.90
2913;DHT22;1466;48.778;9.166;2022-10-31T05:37:05;14.70;99.90
2913;DHT22;1466;48.778;9.166;2022-10-31T05:39:30;14.60;99.90
2913;DHT22;1466;48.778;9.166;2022-10-31T05:41:56;14.70;99.90
2913;DHT22;1466;48.778;9.166;2022-10-31T05:44:22;14.70;99.90
2913;DHT22;1466;48.778;9.166;2022-10-31T05:46:47;14.80;99.90
2913;DHT22;1466;48.778;9.166;2022-10-31T05:49:13;14.70;99.90
2913;DHT22;1466;48.778;9.166;2022-10-31T05:51:39;14.80;99.90
2913;DHT22;1466;48.778;9.166;2022-10-31T05:54:04;14.70;99.90
2913;DHT22;1466;48.778;9.166;2022-10-31T05:56:30;14.70;99.90
2913;DHT22;1466;48.778;9.166;2022-10-31T05:58:56;14.60;99.90
2913;DHT22;1466;48.778;9.166;2022-10-31T06:01:21;14.60;99.90
2913;DHT22;1466;48.778;9.166;2022-10-31T06:03:47;14.50;99.90
2913;DHT22;1466;48.778;9.166;2022-10-31T06:06:12;14.40;99.90
2913;DHT22;1466;48.778;9.166;2022-10-31T06:08:38;14.40;99.90
2913;DHT22;1466;48.778;9.166;2022-10-31T06:11:04;14.40;99.90
2913;DHT22;1466;48.778;9.166;2022-10-31T06:13:29;14.40;99.90
2913;DHT22;1466;48.778;9.166;2022-10-31T06:15:55;14.30;99.90
2913;DHT22;1466;48.778;9.166;2022-10-31T06:18:20;14.40;99.90
2913;DHT22;1466;48.778;9.166;2022-10-31T06:20:46;14.30;99.90
2913;DHT22;1466;48.778;9.166;2022-10-31T06:23:12;14.40;99.90
2913;DHT22;1466;48.778;9.166;2022-10-31T06:25:37;14.50;99.90
2913;DHT22;1466;48.778;9.166;2022-10-31T06:28:03;14.50;99.90
2913;DHT22;1466;48.778;9.166;2022-10-31T06:30:29;14.50;99.90
2913;DHT22;1466;48.778;9.166;2022-10-31T06:32:54;14.40;99.90
2913;DHT22;1466;48.778;9.166;2022-10-31T06:35:20;14.30;99.90
2913;DHT22;1466;48.778;9.166;2022-10-31T06:37:53;14.40;99.90
2913;DHT22;1466;48.778;9.166;2022-10-31T06:40:19;14.40;99.90
2913;DHT22;1466;48.778;9.166;2022-10-31T06:42:45;14.30;99.90
2913;DHT22;1466;48.778;9.166;2022-10-31T06:45:10;14.30;99.90
2913;DHT22;1466;48.778;9.166;2022-10-31T06:47:36;14.40;99.90
2913;DHT22;1466;48.778;9.166;2022-10-31T06:50:01;14.40;99.90
2913;DHT22;1466;48.778;9.166;2022-10-31T06:52:27;14.50;99.90
2913;DHT22;1466;48.778;9.166;2022-10-31T06:54:52;14.50;99.90
2913;DHT22;1466;48.778;9.166;2022-10-31T06:57:18;14.50;99.90
2913;DHT22;1466;48.778;9.166;2022-10-31T06:59:44;14.40;99.90
2913;DHT22;1466;48.778;9.166;2022-10-31T07:02:10;14.40;99.90
2913;DHT22;1466;48.778;9.166;2022-10-31T07:04:36;14.50;99.90
2913;DHT22;1466;48.778;9.166;2022-10-31T07:07:02;14.50;99.90
2913;DHT22;1466;48.778;9.166;2022-10-31T07:09:27;14.50;99.90
2913;DHT22;1466;48.778;9.166;2022-10-31T07:11:53;14.50;99.90
2913;DHT22;1466;48.778;9.166;2022-10-31T07:14:19;14.60;99.90
2913;DHT22;1466;48.778;9.166;2022-10-31T07:16:51;14.60;99.90
2913;DHT22;1466;48.778;9.166;2022-10-31T07:19:16;14.60;99.90
2913;DHT22;1466;48.778;9.166;2022-10-31T07:21:42;14.70;99.90
2913;DHT22;1466;48.778;9.166;2022-10-31T07:24:08;14.70;99.90
2913;DHT22;1466;48.778;9.166;2022-10-31T07:26:33;14.80;99.90
2913;DHT22;1466;48.778;9.166;2022-10-31T07:28:59;14.80;99.90
2913;DHT22;1466;48.778;9.166;2022-10-31T07:31:25;14.80;99.90
2913;DHT22;1466;48.778;9.166;2022-10-31T07:33:51;14.80;99.90
2913;DHT22;1466;48.778;9.166;2022-10-31T07:36:16;14.80;99.90
2913;DHT22;1466;48.778;9.166;2022-10-31T07:38:42;14.90;99.90
2913;DHT22;1466;48.778;9.166;2022-10-31T07:41:08;15.00;99.90
2913;DHT22;1466;48.778;9.166;2022-10-31T07:43:34;15.00;99.90
2913;DHT22;1466;48.778;9.166;2022-10-31T07:45:59;15.00;99.90
2913;DHT22;1466;48.778;9.166;2022-10-31T07:48:25;15.00;99.90
2913;DHT22;1466;48.778;9.166;2022-10-31T07:50:50;15.00;99.90
2913;DHT22;1466;48.778;9.166;2022-10-31T07:53:16;15.00;99.90
2913;DHT22;1466;48.778;9.166;2022-10-31T07:55:42;15.10;99.90
2913;DHT22;1466;48.778;9.166;2022-10-31T07:58:15;15.20;99.90
2913;DHT22;1466;48.778;9.166;2022-10-31T08:00:42;15.20;99.90
2913;DHT22;1466;48.778;9.166;2022-10-31T08:03:10;15.30;99.90
2913;DHT22;1466;48.778;9.166;2022-10-31T08:05:36;15.30;99.90
2913;DHT22;1466;48.778;9.166;2022-10-31T08:08:03;15.30;99.90
2913;DHT22;1466;48.778;9.166;2022-10-31T08:10:29;15.40;99.90
2913;DHT22;1466;48.778;9.166;2022-10-31T08:12:59;15.40;99.90
2913;DHT22;1466;48.778;9.166;2022-10-31T08:15:26;15.40;99.90
2913;DHT22;1466;48.778;9.166;2022-10-31T08:17:52;15.40;99.90
2913;DHT22;1466;48.778;9.166;2022-10-31T08:20:18;15.40;99.90
2913;DHT22;1466;48.778;9.166;2022-10-31T08:22:53;15.40;99.90
2913;DHT22;1466;48.778;9.166;2022-10-31T08:25:18;15.50;99.90
2913;DHT22;1466;48.778;9.166;2022-10-31T08:27:51;15.50;99.90
2913;DHT22;1466;48.778;9.166;2022-10-31T08:30:18;15.50;99.90
2913;DHT22;1466;48.778;9.166;2022-10-31T08:32:44;15.60;99.90
2913;DHT22;1466;48.778;9.166;2022-10-31T08:35:09;15.60;99.90
2913;DHT22;1466;48.778;9.166;2022-10-31T08:37:35;15.60;99.90
2913;DHT22;1466;48.778;9.166;2022-10-31T08:40:00;15.70;99.90
2913;DHT22;1466;48.778;9.166;2022-10-31T08:42:26;15.80;99.90
2913;DHT22;1466;48.778;9.166;2022-10-31T08:44:51;15.80;99.90
2913;DHT22;1466;48.778;9.166;2022-10-31T08:47:17;15.90;99.90
2913;DHT22;1466;48.778;9.166;2022-10-31T08:49:43;15.90;99.90
2913;DHT22;1466;48.778;9.166;2022-10-31T08:52:08;16.00;99.90
2913;DHT22;1466;48.778;9.166;2022-10-31T08:54:34;16.00;99.90
2913;DHT22;1466;48.778;9.166;2022-10-31T08:56:59;16.00;99.90
2913;DHT22;1466;48.778;9.166;2022-10-31T08:59:25;16.10;99.90
2913;DHT22;1466;48.778;9.166;2022-10-31T09:01:50;16.10;99.90
2913;DHT22;1466;48.778;9.166;2022-10-31T09:04:16;16.10;99.90
2913;DHT22;1466;48.778;9.166;2022-10-31T09:06:42;16.10;99.90
2913;DHT22;1466;48.778;9.166;2022-10-31T09:09:07;16.10;99.90
2913;DHT22;1466;48.778;9.166;2022-10-31T09:11:33;16.10;99.90
2913;DHT22;1466;48.778;9.166;2022-10-31T09:13:58;16.20;99.90
2913;DHT22;1466;48.778;9.166;2022-10-31T09:16:24;16.20;99.90
2913;DHT22;1466;48.778;9.166;2022-10-31T09:18:49;16.30;99.90
2913;DHT22;1466;48.778;9.166;2022-10-31T09:21:15;16.40;99.90
2913;DHT22;1466;48.778;9.166;2022-10-31T09:23:41;16.40;99.90
2913;DHT22;1466;48.778;9.166;2022-10-31T09:26:06;16.50;99.90
2913;DHT22;1466;48.778;9.166;2022-10-31T09:28:32;16.60;99.90
2913;DHT22;1466;48.778;9.166;2022-10-31T09:30:58;16.60;99.90
2913;DHT22;1466;48.778;9.166;2022-10-31T09:33:23;16.60;99.90
2913;DHT22;1466;48.778;9.166;2022-10-31T09:35:49;16.60;99.90
2913;DHT22;1466;48.778;9.166;2022-10-31T09:38:17;16.70;99.90
2913;DHT22;1466;48.778;9.166;2022-10-31T09:43:56;16.80;99.90
2913;DHT22;1466;48.778;9.166;2022-10-31T09:52:20;16.80;99.90
2913;DHT22;1466;48.778;9.166;2022-10-31T09:54:46;16.70;99.90
2913;DHT22;1466;48.778;9.166;2022-10-31T09:57:15;16.80;99.90
2913;DHT22;1466;48.778;9.166;2022-10-31T09:59:43;16.80;99.90
2913;DHT22;1466;48.778;9.166;2022-10-31T10:05:29;16.90;99.90
2913;DHT22;1466;48.778;9.166;2022-10-31T10:13:52;17.10;99.90
2913;DHT22;1466;48.778;9.166;2022-10-31T10:21:45;17.30;99.90
2913;DHT22;1466;48.778;9.166;2022-10-31T10:24:54;17.40;99.90
2913;DHT22;1466;48.778;9.166;2022-10-31T10:30:17;17.60;99.90
2913;DHT22;1466;48.778;9.166;2022-10-31T10:32:58;17.70;99.90
2913;DHT22;1466;48.778;9.166;2022-10-31T10:38:29;17.90;99.90
2913;DHT22;1466;48.778;9.166;2022-10-31T10:40:59;17.90;99.90
2913;DHT22;1466;48.778;9.166;2022-10-31T10:43:36;18.00;99.90
2913;DHT22;1466;48.778;9.166;2022-10-31T10:46:43;18.10;99.90
2913;DHT22;1466;48.778;9.166;2022-10-31T10:49:30;18.20;99.90
2913;DHT22;1466;48.778;9.166;2022-10-31T10:51:59;18.20;99.90
2913;DHT22;1466;48.778;9.166;2022-10-31T10:59:40;18.20;99.90
2913;DHT22;1466;48.778;9.166;2022-10-31T11:02:20;18.20;99.90
2913;DHT22;1466;48.778;9.166;2022-10-31T11:04:55;18.20;99.90
2913;DHT22;1466;48.778;9.166;2022-10-31T11:07:22;18.20;99.90
2913;DHT22;1466;48.778;9.166;2022-10-31T11:09:47;18.20;99.90
2913;DHT22;1466;48.778;9.166;2022-10-31T11:12:28;18.20;99.90
2913;DHT22;1466;48.778;9.166;2022-10-31T11:15:00;18.20;99.90
2913;DHT22;1466;48.778;9.166;2022-10-31T11:17:39;18.20;99.90
2913;DHT22;1466;48.778;9.166;2022-10-31T11:22:44;18.30;99.90
2913;DHT22;1466;48.778;9.166;2022-10-31T11:27:45;18.50;99.90
2913;DHT22;1466;48.778;9.166;2022-10-31T11:30:13;18.60;99.90
2913;DHT22;1466;48.778;9.166;2022-10-31T11:32:44;18.80;99.90
2913;DHT22;1466;48.778;9.166;2022-10-31T11:35:14;18.80;99.90
2913;DHT22;1466;48.778;9.166;2022-10-31T11:37:44;18.80;99.90
2913;DHT22;1466;48.778;9.166;2022-10-31T11:40:25;18.80;99.90
2913;DHT22;1466;48.778;9.166;2022-10-31T11:42:52;18.80;99.90
2913;DHT22;1466;48.778;9.166;2022-10-31T11:45:33;18.80;99.90
2913;DHT22;1466;48.778;9.166;2022-10-31T11:48:01;18.80;99.90
2913;DHT22;1466;48.778;9.166;2022-10-31T11:50:35;18.80;99.90
2913;DHT22;1466;48.778;9.166;2022-10-31T11:53:02;18.80;99.90
2913;DHT22;1466;48.778;9.166;2022-10-31T11:55:39;18.80;99.90
2913;DHT22;1466;48.778;9.166;2022-10-31T11:58:23;18.90;99.90
2913;DHT22;1466;48.778;9.166;2022-10-31T12:00:51;19.00;99.90
2913;DHT22;1466;48.778;9.166;2022-10-31T12:05:49;19.20;99.90
2913;DHT22;1466;48.778;9.166;2022-10-31T12:08:17;19.20;99.90
2913;DHT22;1466;48.778;9.166;2022-10-31T12:16:33;19.30;99.90
2913;DHT22;1466;48.778;9.166;2022-10-31T12:22:02;19.40;99.90
2913;DHT22;1466;48.778;9.166;2022-10-31T12:37:58;19.60;99.90
2913;DHT22;1466;48.778;9.166;2022-10-31T12:45:57;19.60;99.90
2913;DHT22;1466;48.778;9.166;2022-10-31T12:53:53;19.40;99.90
2913;DHT22;1466;48.778;9.166;2022-10-31T12:59:31;19.40;99.90
2913;DHT22;1466;48.778;9.166;2022-10-31T13:02:42;19.40;99.90
2913;DHT22;1466;48.778;9.166;2022-10-31T13:05:04;19.40;99.90
2913;DHT22;1466;48.778;9.166;2022-10-31T13:07:42;19.40;99.90
2913;DHT22;1466;48.778;9.166;2022-10-31T13:10:26;19.40;99.90
2913;DHT22;1466;48.778;9.166;2022-10-31T13:13:00;19.40;99.90
2913;DHT22;1466;48.778;9.166;2022-10-31T13:15:33;19.40;99.90
2913;DHT22;1466;48.778;9.166;2022-10-31T13:18:04;19.40;99.90
2913;DHT22;1466;48.778;9.166;2022-10-31T13:20:34;19.40;99.90
2913;DHT22;1466;48.778;9.166;2022-10-31T13:23:34;19.40;99.90
2913;DHT22;1466;48.778;9.166;2022-10-31T13:26:10;19.40;99.90
2913;DHT22;1466;48.778;9.166;2022-10-31T13:31:21;19.40;99.90
2913;DHT22;1466;48.778;9.166;2022-10-31T13:33:48;19.50;99.90
2913;DHT22;1466;48.778;9.166;2022-10-31T13:36:38;19.50;99.90
2913;DHT22;1466;48.778;9.166;2022-10-31T13:42:41;19.60;99.90
2913;DHT22;1466;48.778;9.166;2022-10-31T13:45:17;19.70;99.90
2913;DHT22;1466;48.778;9.166;2022-10-31T13:47:54;19.80;99.90
2913;DHT22;1466;48.778;9.166;2022-10-31T13:50:29;19.90;99.90
2913;DHT22;1466;48.778;9.166;2022-10-31T13:56:10;20.00;99.90
2913;DHT22;1466;48.778;9.166;2022-10-31T13:58:38;20.00;99.90
2913;DHT22;1466;48.778;9.166;2022-10-31T14:03:37;20.00;99.90
2913;DHT22;1466;48.778;9.166;2022-10-31T14:06:04;20.00;99.90
2913;DHT22;1466;48.778;9.166;2022-10-31T14:08:33;19.90;99.90
2913;DHT22;1466;48.778;9.166;2022-10-31T14:10:59;19.80;99.90
2913;DHT22;1466;48.778;9.166;2022-10-31T14:13:32;19.80;99.90
2913;DHT22;1466;48.778;9.166;2022-10-31T14:16:00;19.80;99.90
2913;DHT22;1466;48.778;9.166;2022-10-31T14:20:57;19.80;99.90
2913;DHT22;1466;48.778;9.166;2022-10-31T14:23:39;19.70;99.90
2913;DHT22;1466;48.778;9.166;2022-10-31T14:28:34;19.60;99.90
2913;DHT22;1466;48.778;9.166;2022-10-31T14:31:00;19.60;99.90
2913;DHT22;1466;48.778;9.166;2022-10-31T14:33:30;19.70;99.90
2913;DHT22;1466;48.778;9.166;2022-10-31T14:36:12;19.80;99.90
2913;DHT22;1466;48.778;9.166;2022-10-31T14:41:34;19.70;99.90
2913;DHT22;1466;48.778;9.166;2022-10-31T14:47:20;19.60;99.90
2913;DHT22;1466;48.778;9.166;2022-10-31T14:52:22;19.60;99.90
2913;DHT22;1466;48.778;9.166;2022-10-31T14:54:52;19.60;99.90
2913;DHT22;1466;48.778;9.166;2022-10-31T14:57:25;19.70;99.90
2913;DHT22;1466;48.778;9.166;2022-10-31T15:00:04;19.70;99.90
2913;DHT22;1466;48.778;9.166;2022-10-31T15:03:14;19.70;99.90
2913;DHT22;1466;48.778;9.166;2022-10-31T15:05:49;19.60;99.90
2913;DHT22;1466;48.778;9.166;2022-10-31T15:08:39;19.60;99.90
2913;DHT22;1466;48.778;9.166;2022-10-31T15:11:12;19.60;99.90
2913;DHT22;1466;48.778;9.166;2022-10-31T15:13:48;19.60;99.90
2913;DHT22;1466;48.778;9.166;2022-10-31T15:16:17;19.60;99.90
2913;DHT22;1466;48.778;9.166;2022-10-31T15:19:07;19.60;99.90
2913;DHT22;1466;48.778;9.166;2022-10-31T15:21:33;19.60;99.90
2913;DHT22;1466;48.778;9.166;2022-10-31T15:24:01;19.50;99.90
2913;DHT22;1466;48.778;9.166;2022-10-31T15:26:35;19.50;99.90
2913;DHT22;1466;48.778;9.166;2022-10-31T15:29:05;19.50;99.90
2913;DHT22;1466;48.778;9.166;2022-10-31T15:31:36;19.40;99.90
2913;DHT22;1466;48.778;9.166;2022-10-31T15:34:06;19.40;99.90
2913;DHT22;1466;48.778;9.166;2022-10-31T15:36:32;19.30;99.90
2913;DHT22;1466;48.778;9.166;2022-10-31T15:38:58;19.30;99.90
2913;DHT22;1466;48.778;9.166;2022-10-31T15:41:47;19.20;99.90
2913;DHT22;1466;48.778;9.166;2022-10-31T15:44:16;19.20;99.90
2913;DHT22;1466;48.778;9.166;2022-10-31T15:46:55;19.10;99.90
2913;DHT22;1466;48.778;9.166;2022-10-31T15:51:54;19.00;99.90
2913;DHT22;1466;48.778;9.166;2022-10-31T15:54:21;18.90;99.90
2913;DHT22;1466;48.778;9.166;2022-10-31T15:56:47;18.80;99.90
2913;DHT22;1466;48.778;9.166;2022-10-31T15:59:20;18.80;99.90
2913;DHT22;1466;48.778;9.166;2022-10-31T16:01:59;18.80;99.90
2913;DHT22;1466;48.778;9.166;2022-10-31T16:04:25;18.70;99.90
2913;DHT22;1466;48.778;9.166;2022-10-31T16:07:02;18.70;99.90
2913;DHT22;1466;48.778;9.166;2022-10-31T16:09:29;18.60;99.90
2913;DHT22;1466;48.778;9.166;2022-10-31T16:11:56;18.60;99.90
2913;DHT22;1466;48.778;9.166;2022-10-31T16:14:26;18.60;99.90
2913;DHT22;1466;48.778;9.166;2022-10-31T16:16:55;18.50;99.90
2913;DHT22;1466;48.778;9.166;2022-10-31T16:19:28;18.50;99.90
2913;DHT22;1466;48.778;9.166;2022-10-31T16:22:03;18.50;99.90
2913;DHT22;1466;48.778;9.166;2022-10-31T16:24:32;18.50;99.90
2913;DHT22;1466;48.778;9.166;2022-10-31T16:27:04;18.40;99.90
2913;DHT22;1466;48.778;9.166;2022-10-31T16:29:36;18.40;99.90
2913;DHT22;1466;48.778;9.166;2022-10-31T16:32:03;18.30;99.90
2913;DHT22;1466;48.778;9.166;2022-10-31T16:34:29;18.30;99.90
2913;DHT22;1466;48.778;9.166;2022-10-31T16:36:54;18.20;99.90
2913;DHT22;1466;48.778;9.166;2022-10-31T16:39:20;18.20;99.90
2913;DHT22;1466;48.778;9.166;2022-10-31T16:41:49;18.10;99.90
2913;DHT22;1466;48.778;9.166;2022-10-31T16:44:25;18.20;99.90
2913;DHT22;1466;48.778;9.166;2022-10-31T16:47:14;18.10;99.90
2913;DHT22;1466;48.778;9.166;2022-10-31T16:49:42;18.10;99.90
2913;DHT22;1466;48.778;9.166;2022-10-31T16:52:07;18.00;99.90
2913;DHT22;1466;48.778;9.166;2022-10-31T16:54:34;17.90;99.90
2913;DHT22;1466;48.778;9.166;2022-10-31T16:57:02;17.90;99.90
2913;DHT22;1466;48.778;9.166;2022-10-31T16:59:29;17.80;99.90
2913;DHT22;1466;48.778;9.166;2022-10-31T17:01:55;17.80;99.90
2913;DHT22;1466;48.778;9.166;2022-10-31T17:04:21;17.80;99.90
2913;DHT22;1466;48.778;9.166;2022-10-31T17:06:47;17.70;99.90
2913;DHT22;1466;48.778;9.166;2022-10-31T17:09:12;17.70;99.90
2913;DHT22;1466;48.778;9.166;2022-10-31T17:11:44;17.60;99.90
2913;DHT22;1466;48.778;9.166;2022-10-31T17:14:10;17.70;99.90
2913;DHT22;1466;48.778;9.166;2022-10-31T17:16:39;17.60;99.90
2913;DHT22;1466;48.778;9.166;2022-10-31T17:19:04;17.60;99.90
2913;DHT22;1466;48.778;9.166;2022-10-31T17:21:30;17.50;99.90
2913;DHT22;1466;48.778;9.166;2022-10-31T17:23:56;17.60;99.90
2913;DHT22;1466;48.778;9.166;2022-10-31T17:26:21;17.60;99.90
2913;DHT22;1466;48.778;9.166;2022-10-31T17:28:47;17.60;99.90
2913;DHT22;1466;48.778;9.166;2022-10-31T17:31:21;17.50;99.90
2913;DHT22;1466;48.778;9.166;2022-10-31T17:33:47;17.50;99.90
2913;DHT22;1466;48.778;9.166;2022-10-31T17:36:12;17.40;99.90
2913;DHT22;1466;48.778;9.166;2022-10-31T17:38:38;17.30;99.90
2913;DHT22;1466;48.778;9.166;2022-10-31T17:41:05;17.20;99.90
2913;DHT22;1466;48.778;9.166;2022-10-31T17:43:30;17.20;99.90
2913;DHT22;1466;48.778;9.166;2022-10-31T17:45:58;17.10;99.90
2913;DHT22;1466;48.778;9.166;2022-10-31T17:48:24;17.10;99.90
2913;DHT22;1466;48.778;9.166;2022-10-31T17:50:50;17.10;99.90
2913;DHT22;1466;48.778;9.166;2022-10-31T17:53:16;17.10;99.90
2913;DHT22;1466;48.778;9.166;2022-10-31T17:55:41;17.10;99.90
2913;DHT22;1466;48.778;9.166;2022-10-31T17:58:07;17.10;99.90
2913;DHT22;1466;48.778;9.166;2022-10-31T18:00:37;17.10;99.90
2913;DHT22;1466;48.778;9.166;2022-10-31T18:03:03;17.00;99.90
2913;DHT22;1466;48.778;9.166;2022-10-31T18:05:29;17.00;99.90
2913;DHT22;1466;48.778;9.166;2022-10-31T18:07:55;17.00;99.90
2913;DHT22;1466;48.778;9.166;2022-10-31T18:10:20;17.10;99.90
2913;DHT22;1466;48.778;9.166;2022-10-31T18:12:46;17.00;99.90
2913;DHT22;1466;48.778;9.166;2022-10-31T18:15:13;17.00;99.90
2913;DHT22;1466;48.778;9.166;2022-10-31T18:17:39;16.90;99.90
2913;DHT22;1466;48.778;9.166;2022-10-31T18:20:05;16.90;99.90
2913;DHT22;1466;48.778;9.166;2022-10-31T18:22:31;16.90;99.90
2913;DHT22;1466;48.778;9.166;2022-10-31T18:24:56;16.80;99.90
2913;DHT22;1466;48.778;9.166;2022-10-31T18:27:22;16.90;99.90
2913;DHT22;1466;48.778;9.166;2022-10-31T18:29:47;16.80;99.90
2913;DHT22;1466;48.778;9.166;2022-10-31T18:32:13;16.80;99.90
2913;DHT22;1466;48.778;9.166;2022-10-31T18:34:39;16.70;99.90